createdAt,value
2019-01-24T00:01:46.073Z,82.48
2019-01-24T00:05:52.995Z,81.90
2019-01-24T00:09:59.835Z,82.41
2019-01-24T00:14:06.962Z,81.84
2019-01-24T00:18:13.935Z,81.77
2019-01-24T00:22:20.787Z,82.00
2019-01-24T00:26:27.617Z,81.01
2019-01-24T00:30:34.828Z,79.95
2019-01-24T00:34:41.817Z,80.19
2019-01-24T00:38:48.717Z,80.74
2019-01-24T00:42:55.626Z,80.88
2019-01-24T00:47:02.455Z,81.77
2019-01-24T00:51:09.344Z,80.90
2019-01-24T00:55:16.734Z,80.62
2019-01-24T00:59:23.817Z,81.38
2019-01-24T01:03:30.632Z,81.36
2019-01-24T01:07:37.741Z,81.96
2019-01-24T01:11:45.029Z,81.25
2019-01-24T01:15:51.943Z,81.47
2019-01-24T01:19:59.015Z,81.69
2019-01-24T01:24:07.094Z,82.14
2019-01-24T01:28:14.031Z,82.47
2019-01-24T01:32:20.894Z,82.79
2019-01-24T01:36:27.753Z,82.05
2019-01-24T01:40:34.827Z,82.58
2019-01-24T01:44:41.812Z,82.08
2019-01-24T01:48:48.637Z,82.03
2019-01-24T01:52:55.521Z,82.13
2019-01-24T01:57:02.405Z,82.06
2019-01-24T02:01:09.922Z,81.49
2019-01-24T02:05:17.493Z,81.87
2019-01-24T02:09:24.340Z,81.48
2019-01-24T02:13:31.206Z,81.50
2019-01-24T02:17:39.187Z,80.57
2019-01-24T02:21:46.948Z,80.46
2019-01-24T02:25:55.278Z,80.00
2019-01-24T02:30:03.493Z,80.18
2019-01-24T02:34:11.381Z,80.76
2019-01-24T02:38:19.153Z,81.04
2019-01-24T02:42:26.049Z,80.92
2019-01-24T02:46:32.935Z,81.25
2019-01-24T02:50:39.862Z,81.46
2019-01-24T02:54:46.724Z,81.06
2019-01-24T02:58:53.627Z,80.78
2019-01-24T03:03:00.503Z,80.73
2019-01-24T03:07:07.430Z,81.62
2019-01-24T03:11:14.272Z,81.76
2019-01-24T03:15:24.424Z,82.17
2019-01-24T03:19:31.302Z,82.59
2019-01-24T03:23:38.098Z,82.18
2019-01-24T03:27:48.398Z,81.88
2019-01-24T03:31:55.219Z,82.21
2019-01-24T03:36:02.190Z,82.67
2019-01-24T03:40:11.304Z,82.58
2019-01-24T03:44:18.161Z,83.04
2019-01-24T03:48:24.970Z,82.97
2019-01-24T03:52:31.804Z,82.33
2019-01-24T03:56:38.728Z,82.39
2019-01-24T04:00:45.521Z,82.40
2019-01-24T04:04:52.340Z,82.54
2019-01-24T04:08:59.102Z,82.87
2019-01-24T04:13:05.942Z,83.25
2019-01-24T04:17:12.904Z,83.59
2019-01-24T04:21:19.689Z,83.30
2019-01-24T04:25:26.709Z,83.72
2019-01-24T04:29:33.485Z,83.29
2019-01-24T04:33:40.394Z,83.35
2019-01-24T04:37:47.347Z,83.18
2019-01-24T04:41:54.155Z,83.14
2019-01-24T04:46:01.179Z,83.92
2019-01-24T04:50:09.462Z,84.15
2019-01-24T04:54:16.329Z,83.89
2019-01-24T04:58:23.172Z,84.10
2019-01-24T05:02:29.978Z,83.76
2019-01-24T05:06:36.748Z,83.68
2019-01-24T05:10:43.707Z,83.91
2019-01-24T05:14:50.481Z,84.39
2019-01-24T05:18:57.335Z,84.77
2019-01-24T05:23:04.191Z,85.00
2019-01-24T05:27:11.237Z,85.05
2019-01-24T05:31:18.211Z,84.83
2019-01-24T05:35:25.125Z,85.10
2019-01-24T05:39:31.926Z,85.55
2019-01-24T05:43:38.675Z,85.62
2019-01-24T05:47:46.660Z,86.01
2019-01-24T05:51:53.485Z,86.06
2019-01-24T05:56:00.423Z,85.68
2019-01-24T06:00:11.587Z,86.26
2019-01-24T06:04:20.122Z,86.03
2019-01-24T06:08:27.144Z,86.11
2019-01-24T06:12:33.943Z,86.21
2019-01-24T06:16:40.828Z,86.30
2019-01-24T06:20:47.789Z,86.03
2019-01-24T06:24:55.357Z,86.22
2019-01-24T06:29:15.066Z,86.10
2019-01-24T06:33:21.962Z,86.39
2019-01-24T06:37:28.794Z,86.00
2019-01-24T06:41:35.623Z,86.25
2019-01-24T06:45:42.739Z,85.77
2019-01-24T06:49:49.661Z,85.60
2019-01-24T06:53:56.493Z,85.60
2019-01-24T06:58:05.045Z,85.79
2019-01-24T07:02:14.391Z,85.92
2019-01-24T07:06:22.448Z,85.85
2019-01-24T07:10:29.730Z,85.64
2019-01-24T07:14:36.695Z,85.65
2019-01-24T07:18:46.481Z,85.45
2019-01-24T07:22:53.338Z,85.64
2019-01-24T07:27:00.186Z,85.51
2019-01-24T07:31:07.042Z,85.27
2019-01-24T07:35:15.768Z,85.42
2019-01-24T07:39:22.689Z,85.16
2019-01-24T07:43:29.659Z,85.39
2019-01-24T07:47:38.591Z,85.29
2019-01-24T07:51:45.408Z,86.73
2019-01-24T07:55:52.313Z,85.05
2019-01-24T07:59:59.136Z,85.00
2019-01-24T08:04:06.188Z,84.77
2019-01-24T08:08:13.012Z,84.23
2019-01-24T08:12:21.727Z,84.41
2019-01-24T08:16:28.528Z,84.16
2019-01-24T08:20:35.429Z,84.46
2019-01-24T08:24:42.324Z,84.16
2019-01-24T08:28:49.131Z,84.26
2019-01-24T08:32:55.968Z,84.35
2019-01-24T08:37:02.890Z,84.72
2019-01-24T08:41:10.021Z,84.67
2019-01-24T08:45:17.078Z,84.65
2019-01-24T08:49:25.387Z,84.86
2019-01-24T08:53:32.251Z,85.43
2019-01-24T08:57:45.349Z,85.50
2019-01-24T09:01:52.106Z,86.09
2019-01-24T09:05:58.911Z,86.86
2019-01-24T09:10:07.295Z,87.80
2019-01-24T09:14:14.081Z,88.40
2019-01-24T09:18:20.890Z,88.99
2019-01-24T09:22:27.765Z,89.10
2019-01-24T09:26:34.673Z,89.83
2019-01-24T09:30:41.488Z,90.47
2019-01-24T09:34:48.560Z,90.30
2019-01-24T09:38:55.508Z,91.38
2019-01-24T09:43:02.332Z,91.35
2019-01-24T09:47:09.601Z,91.53
2019-01-24T09:51:16.411Z,92.10
2019-01-24T09:55:23.502Z,92.13
2019-01-24T09:59:30.300Z,92.34
2019-01-24T10:03:46.308Z,92.52
2019-01-24T10:07:53.267Z,92.31
2019-01-24T10:12:00.102Z,93.11
2019-01-24T10:16:07.126Z,93.46
2019-01-24T10:20:16.647Z,93.93
2019-01-24T10:24:23.457Z,94.44
2019-01-24T10:28:30.356Z,92.51
2019-01-24T10:32:37.187Z,91.29
2019-01-24T10:36:44.100Z,91.26
2019-01-24T10:40:50.918Z,91.49
2019-01-24T10:44:57.899Z,90.94
2019-01-24T10:49:05.235Z,90.27
2019-01-24T10:53:12.194Z,89.42
2019-01-24T10:57:19.147Z,89.20
2019-01-24T11:01:26.044Z,88.64
2019-01-24T11:05:33.783Z,88.00
2019-01-24T11:09:40.746Z,88.15
2019-01-24T11:13:47.553Z,88.71
2019-01-24T11:17:54.418Z,87.50
2019-01-24T11:22:01.252Z,87.39
2019-01-24T11:26:08.205Z,87.23
2019-01-24T11:30:34.830Z,86.31
2019-01-24T11:34:41.696Z,85.63
2019-01-24T11:38:48.538Z,85.35
2019-01-24T11:42:55.562Z,85.00
2019-01-24T11:47:02.340Z,84.40
2019-01-24T11:51:09.138Z,84.60
2019-01-24T11:55:18.241Z,84.07
2019-01-24T11:59:25.343Z,83.90
2019-01-24T12:08:08.758Z,84.62
2019-01-24T12:12:16.850Z,85.64
2019-01-24T12:16:23.677Z,85.50
2019-01-24T12:20:30.679Z,84.59
2019-01-24T12:24:37.483Z,86.19
2019-01-24T12:28:44.501Z,86.22
2019-01-24T12:32:51.472Z,85.70
2019-01-24T12:36:58.367Z,85.75
2019-01-24T12:41:05.206Z,84.82
2019-01-24T12:45:19.074Z,84.31
2019-01-24T12:49:25.900Z,85.29
2019-01-24T12:53:33.475Z,84.65
2019-01-24T12:57:40.528Z,85.35
2019-01-24T13:01:47.303Z,84.78
2019-01-24T13:05:54.133Z,85.25
2019-01-24T13:10:00.971Z,88.92
2019-01-24T13:14:07.954Z,86.43
2019-01-24T13:18:14.806Z,83.56
2019-01-24T13:22:21.622Z,84.14
2019-01-24T13:26:28.551Z,83.18
2019-01-24T13:30:35.935Z,83.24
2019-01-24T13:34:42.780Z,83.20
2019-01-24T13:38:49.603Z,84.59
2019-01-24T13:42:57.034Z,84.59
2019-01-24T13:47:03.951Z,84.95
2019-01-24T13:51:10.815Z,84.60
2019-01-24T13:55:17.667Z,83.38
2019-01-24T13:59:24.465Z,84.07
2019-01-24T14:04:16.031Z,85.05
2019-01-24T14:08:22.838Z,82.80
2019-01-24T14:12:29.629Z,82.16
2019-01-24T14:16:36.557Z,82.54
2019-01-24T14:20:43.511Z,83.34
2019-01-24T14:24:52.347Z,84.30
2019-01-24T14:28:59.182Z,84.93
2019-01-24T14:33:06.660Z,85.94
2019-01-24T14:37:13.460Z,86.19
2019-01-24T14:41:20.269Z,86.34
2019-01-24T14:45:27.496Z,86.08
2019-01-24T14:49:34.327Z,84.31
2019-01-24T14:53:41.170Z,85.03
2019-01-24T14:57:48.075Z,85.07
2019-01-24T15:01:54.895Z,85.13
2019-01-24T15:06:01.744Z,85.52
2019-01-24T15:10:09.783Z,86.72
2019-01-24T15:14:16.591Z,98.06
2019-01-24T15:18:23.381Z,90.53
2019-01-24T15:22:32.702Z,86.68
2019-01-24T15:26:39.573Z,87.08
2019-01-24T15:30:46.376Z,88.37
2019-01-24T15:34:53.272Z,90.11
2019-01-24T15:39:00.115Z,87.46
2019-01-24T15:43:07.521Z,89.24
2019-01-24T15:47:14.705Z,87.54
2019-01-24T15:51:21.673Z,89.17
2019-01-24T15:55:28.785Z,90.89
2019-01-24T15:59:35.666Z,91.14
2019-01-24T16:03:42.506Z,91.72
2019-01-24T16:07:49.519Z,92.89
2019-01-24T16:11:56.472Z,93.48
2019-01-24T16:16:05.029Z,94.73
2019-01-24T16:20:17.038Z,95.57
2019-01-24T16:24:24.107Z,95.90
2019-01-24T16:28:31.103Z,96.33
2019-01-24T16:32:37.922Z,96.79
2019-01-24T16:36:44.876Z,97.15
2019-01-24T16:40:52.857Z,96.59
2019-01-24T16:44:59.734Z,96.43
2019-01-24T16:49:07.081Z,96.57
2019-01-24T16:53:23.932Z,95.83
2019-01-24T16:57:30.816Z,94.42
2019-01-24T17:01:37.854Z,94.37
2019-01-24T17:05:44.827Z,94.61
2019-01-24T17:09:52.019Z,94.67
2019-01-24T17:13:59.316Z,94.00
2019-01-24T17:18:06.930Z,95.04
2019-01-24T17:22:13.920Z,95.33
2019-01-24T17:26:20.793Z,95.73
2019-01-24T17:30:29.596Z,95.83
2019-01-24T17:34:36.592Z,96.08
2019-01-24T17:38:43.628Z,96.07
2019-01-24T17:42:50.721Z,96.24
2019-01-24T17:46:57.710Z,95.79
2019-01-24T17:51:04.762Z,96.26
2019-01-24T17:55:22.492Z,96.70
2019-01-24T17:59:29.518Z,97.45
2019-01-24T18:03:36.366Z,97.15
2019-01-24T18:07:43.379Z,96.52
2019-01-24T18:11:51.335Z,96.17
2019-01-24T18:15:58.189Z,96.24
2019-01-24T18:20:07.120Z,96.53
2019-01-24T18:24:18.218Z,96.45
2019-01-24T18:28:25.133Z,97.37
2019-01-24T18:32:32.509Z,98.44
2019-01-24T18:36:39.558Z,98.56
2019-01-24T18:40:46.976Z,98.79
2019-01-24T18:44:53.991Z,98.77
2019-01-24T18:49:00.994Z,98.28
2019-01-24T18:53:08.337Z,98.91
2019-01-24T18:57:15.291Z,99.21
2019-01-24T19:01:22.182Z,99.18
2019-01-24T19:05:29.234Z,100.00
2019-01-24T19:09:36.241Z,100.00
2019-01-24T19:13:44.233Z,98.65
2019-01-24T19:17:51.288Z,97.85
2019-01-24T19:21:58.568Z,99.07
2019-01-24T19:26:06.495Z,99.18
2019-01-24T19:30:22.382Z,99.23
2019-01-24T19:34:29.563Z,98.73
2019-01-24T19:38:36.452Z,98.77
2019-01-24T19:42:43.533Z,97.25
2019-01-24T19:46:50.541Z,97.28
2019-01-24T19:50:57.433Z,96.07
2019-01-24T19:55:04.982Z,96.82
2019-01-24T19:59:11.974Z,95.78
2019-01-24T20:03:18.988Z,96.25
2019-01-24T20:07:26.120Z,96.05
2019-01-24T20:11:33.187Z,96.40
2019-01-24T20:15:40.354Z,97.42
2019-01-24T20:19:47.515Z,97.17
2019-01-24T20:23:54.606Z,96.88
2019-01-24T20:28:01.938Z,97.60
2019-01-24T20:32:09.325Z,98.64
2019-01-24T20:36:17.967Z,98.52
2019-01-24T20:40:26.707Z,98.72
2019-01-24T20:44:34.315Z,98.65
2019-01-24T20:48:43.948Z,98.90
2019-01-24T20:52:51.482Z,99.27
2019-01-24T20:56:58.594Z,100.00
2019-01-24T21:01:05.923Z,100.00
2019-01-24T21:05:15.277Z,99.89
2019-01-24T21:09:22.652Z,98.80
2019-01-24T21:13:30.050Z,98.98
2019-01-24T21:17:37.238Z,99.36
2019-01-24T21:21:46.879Z,99.91
2019-01-24T21:25:54.165Z,100.00
2019-01-24T21:30:01.483Z,100.00
2019-01-24T21:34:10.221Z,100.00
2019-01-24T21:38:21.680Z,100.00
2019-01-24T21:42:35.527Z,100.00
2019-01-24T21:46:42.663Z,100.00
2019-01-24T21:50:49.746Z,100.00
2019-01-24T21:54:56.694Z,100.00
2019-01-24T21:59:03.562Z,100.00
2019-01-24T22:03:10.422Z,100.00
2019-01-24T22:07:17.892Z,100.00
2019-01-24T22:11:28.173Z,100.00
2019-01-24T22:15:36.839Z,100.00
2019-01-24T22:19:43.845Z,100.00
2019-01-24T22:23:51.021Z,100.00
2019-01-24T22:27:57.942Z,100.00
2019-01-24T22:32:05.116Z,100.00
2019-01-24T22:36:12.013Z,100.00
2019-01-24T22:40:19.091Z,100.00
2019-01-24T22:44:25.996Z,100.00
2019-01-24T22:48:32.830Z,100.00
2019-01-24T22:52:39.721Z,100.00
2019-01-24T22:56:46.698Z,100.00
2019-01-24T23:01:37.939Z,97.01
2019-01-24T23:05:44.847Z,85.00
2019-01-24T23:09:51.730Z,81.03
2019-01-24T23:13:58.745Z,77.58
2019-01-24T23:18:06.179Z,76.23
2019-01-24T23:22:13.091Z,75.53
2019-01-24T23:26:20.052Z,76.85
2019-01-24T23:30:27.059Z,75.35
2019-01-24T23:34:34.023Z,76.53
2019-01-24T23:38:40.872Z,75.22
2019-01-24T23:42:47.725Z,74.23
2019-01-24T23:46:54.673Z,75.80
2019-01-24T23:51:01.537Z,75.47
2019-01-24T23:55:09.201Z,75.82
2019-01-24T23:59:16.435Z,75.25
